sensor_id;sensor_type;location;lat;lon;timestamp;temperature;humidity
75010;DHT22;63564;46.840;18.336;2023-02-28T00:01:22;1.32;73.95
75010;DHT22;63564;46.840;18.336;2023-02-28T00:04:22;1.22;73.01
75010;DHT22;63564;46.840;18.336;2023-02-28T00:07:23;1.21;72.17
75010;DHT22;63564;46.840;18.336;2023-02-28T00:10:25;1.23;73.11
75010;DHT22;63564;46.840;18.336;2023-02-28T00:13:26;1.16;72.50
75010;DHT22;63564;46.840;18.336;2023-02-28T00:16:27;1.09;72.89
75010;DHT22;63564;46.840;18.336;2023-02-28T00:19:27;1.12;74.14
75010;DHT22;63564;46.840;18.336;2023-02-28T00:22:28;1.06;74.21
75010;DHT22;63564;46.840;18.336;2023-02-28T00:25:28;0.91;73.56
75010;DHT22;63564;46.840;18.336;2023-02-28T00:28:29;1.03;74.43
75010;DHT22;63564;46.840;18.336;2023-02-28T00:31:29;1.12;73.41
75010;DHT22;63564;46.840;18.336;2023-02-28T00:34:30;1.16;74.17
75010;DHT22;63564;46.840;18.336;2023-02-28T00:37:31;1.21;73.48
75010;DHT22;63564;46.840;18.336;2023-02-28T00:40:31;1.12;73.76
75010;DHT22;63564;46.840;18.336;2023-02-28T00:43:36;0.94;75.11
75010;DHT22;63564;46.840;18.336;2023-02-28T00:46:37;0.98;74.84
75010;DHT22;63564;46.840;18.336;2023-02-28T00:49:37;0.83;75.15
75010;DHT22;63564;46.840;18.336;2023-02-28T00:52:38;0.95;75.56
75010;DHT22;63564;46.840;18.336;2023-02-28T00:55:38;0.91;75.31
75010;DHT22;63564;46.840;18.336;2023-02-28T00:58:39;0.88;75.67
75010;DHT22;63564;46.840;18.336;2023-02-28T01:01:40;0.73;75.84
75010;DHT22;63564;46.840;18.336;2023-02-28T01:04:41;0.88;75.96
75010;DHT22;63564;46.840;18.336;2023-02-28T01:07:41;0.89;76.13
75010;DHT22;63564;46.840;18.336;2023-02-28T01:10:42;0.92;75.21
75010;DHT22;63564;46.840;18.336;2023-02-28T01:13:44;0.95;75.01
75010;DHT22;63564;46.840;18.336;2023-02-28T01:16:45;1.01;75.17
75010;DHT22;63564;46.840;18.336;2023-02-28T01:19:45;1.01;74.81
75010;DHT22;63564;46.840;18.336;2023-02-28T01:22:46;0.99;75.43
75010;DHT22;63564;46.840;18.336;2023-02-28T01:25:46;0.99;75.20
75010;DHT22;63564;46.840;18.336;2023-02-28T01:28:48;0.83;75.07
75010;DHT22;63564;46.840;18.336;2023-02-28T01:31:48;0.91;75.12
75010;DHT22;63564;46.840;18.336;2023-02-28T01:34:48;0.96;75.09
75010;DHT22;63564;46.840;18.336;2023-02-28T01:37:49;0.95;75.63
75010;DHT22;63564;46.840;18.336;2023-02-28T01:40:50;0.85;75.81
75010;DHT22;63564;46.840;18.336;2023-02-28T01:44:01;0.65;76.88
75010;DHT22;63564;46.840;18.336;2023-02-28T01:47:03;0.57;77.77
75010;DHT22;63564;46.840;18.336;2023-02-28T01:50:06;0.68;77.47
75010;DHT22;63564;46.840;18.336;2023-02-28T01:53:11;0.64;77.25
75010;DHT22;63564;46.840;18.336;2023-02-28T01:56:17;0.70;77.06
75010;DHT22;63564;46.840;18.336;2023-02-28T01:59:48;0.70;77.85
75010;DHT22;63564;46.840;18.336;2023-02-28T02:02:54;0.60;77.02
75010;DHT22;63564;46.840;18.336;2023-02-28T02:05:56;0.61;77.30
75010;DHT22;63564;46.840;18.336;2023-02-28T02:08:56;0.68;76.99
75010;DHT22;63564;46.840;18.336;2023-02-28T02:11:57;0.77;76.35
75010;DHT22;63564;46.840;18.336;2023-02-28T02:15:03;0.61;76.96
75010;DHT22;63564;46.840;18.336;2023-02-28T02:18:27;0.65;76.04
75010;DHT22;63564;46.840;18.336;2023-02-28T02:38:28;0.63;75.74
75010;DHT22;63564;46.840;18.336;2023-02-28T02:41:45;0.61;75.17
75010;DHT22;63564;46.840;18.336;2023-02-28T02:44:51;0.63;75.23
75010;DHT22;63564;46.840;18.336;2023-02-28T02:47:56;0.49;75.60
75010;DHT22;63564;46.840;18.336;2023-02-28T02:51:01;0.46;75.88
75010;DHT22;63564;46.840;18.336;2023-02-28T02:54:10;0.40;75.89
75010;DHT22;63564;46.840;18.336;2023-02-28T02:57:29;0.44;76.12
75010;DHT22;63564;46.840;18.336;2023-02-28T03:00:37;0.52;75.93
75010;DHT22;63564;46.840;18.336;2023-02-28T03:03:40;0.43;75.69
75010;DHT22;63564;46.840;18.336;2023-02-28T03:06:40;0.44;76.66
75010;DHT22;63564;46.840;18.336;2023-02-28T03:09:49;0.60;75.98
75010;DHT22;63564;46.840;18.336;2023-02-28T03:13:42;0.52;76.66
75010;DHT22;63564;46.840;18.336;2023-02-28T03:26:29;0.63;76.32
75010;DHT22;63564;46.840;18.336;2023-02-28T03:29:38;0.43;77.59
75010;DHT22;63564;46.840;18.336;2023-02-28T03:32:56;0.43;76.89
75010;DHT22;63564;46.840;18.336;2023-02-28T03:36:02;0.50;77.19
75010;DHT22;63564;46.840;18.336;2023-02-28T03:39:07;0.44;76.51
75010;DHT22;63564;46.840;18.336;2023-02-28T03:42:20;0.42;77.70
75010;DHT22;63564;46.840;18.336;2023-02-28T03:45:26;0.43;78.16
75010;DHT22;63564;46.840;18.336;2023-02-28T03:48:55;0.53;78.37
75010;DHT22;63564;46.840;18.336;2023-02-28T03:51:55;0.70;77.35
75010;DHT22;63564;46.840;18.336;2023-02-28T03:55:02;0.47;77.98
75010;DHT22;63564;46.840;18.336;2023-02-28T04:01:34;0.54;79.22
75010;DHT22;63564;46.840;18.336;2023-02-28T04:04:35;0.60;78.75
75010;DHT22;63564;46.840;18.336;2023-02-28T04:07:36;0.61;77.27
75010;DHT22;63564;46.840;18.336;2023-02-28T04:10:37;0.64;77.16
75010;DHT22;63564;46.840;18.336;2023-02-28T04:13:38;0.68;78.04
75010;DHT22;63564;46.840;18.336;2023-02-28T04:16:41;0.53;77.82
75010;DHT22;63564;46.840;18.336;2023-02-28T04:19:41;0.74;78.17
75010;DHT22;63564;46.840;18.336;2023-02-28T04:22:42;0.70;77.43
75010;DHT22;63564;46.840;18.336;2023-02-28T04:25:42;0.32;78.59
75010;DHT22;63564;46.840;18.336;2023-02-28T04:28:43;0.29;80.17
75010;DHT22;63564;46.840;18.336;2023-02-28T04:31:44;0.32;79.22
75010;DHT22;63564;46.840;18.336;2023-02-28T04:34:44;0.32;79.65
75010;DHT22;63564;46.840;18.336;2023-02-28T04:37:44;0.26;80.56
75010;DHT22;63564;46.840;18.336;2023-02-28T04:40:45;0.40;78.56
75010;DHT22;63564;46.840;18.336;2023-02-28T04:43:45;0.35;79.19
75010;DHT22;63564;46.840;18.336;2023-02-28T04:46:47;0.43;78.56
75010;DHT22;63564;46.840;18.336;2023-02-28T04:49:48;0.33;78.28
75010;DHT22;63564;46.840;18.336;2023-02-28T04:52:48;0.30;78.47
75010;DHT22;63564;46.840;18.336;2023-02-28T04:55:49;0.40;78.54
75010;DHT22;63564;46.840;18.336;2023-02-28T04:58:49;0.40;78.59
75010;DHT22;63564;46.840;18.336;2023-02-28T05:01:50;0.36;78.79
75010;DHT22;63564;46.840;18.336;2023-02-28T05:04:51;0.32;79.19
75010;DHT22;63564;46.840;18.336;2023-02-28T05:07:51;0.22;79.36
75010;DHT22;63564;46.840;18.336;2023-02-28T05:10:53;0.46;78.42
75010;DHT22;63564;46.840;18.336;2023-02-28T05:13:54;0.39;78.01
75010;DHT22;63564;46.840;18.336;2023-02-28T05:16:55;0.61;78.66
75010;DHT22;63564;46.840;18.336;2023-02-28T05:19:55;0.68;76.83
75010;DHT22;63564;46.840;18.336;2023-02-28T05:22:57;0.50;76.24
75010;DHT22;63564;46.840;18.336;2023-02-28T05:25:58;0.57;76.36
75010;DHT22;63564;46.840;18.336;2023-02-28T05:28:58;0.54;76.77
75010;DHT22;63564;46.840;18.336;2023-02-28T05:31:59;0.52;76.28
75010;DHT22;63564;46.840;18.336;2023-02-28T05:34:59;0.35;75.97
75010;DHT22;63564;46.840;18.336;2023-02-28T05:38:00;0.46;76.21
75010;DHT22;63564;46.840;18.336;2023-02-28T05:41:07;0.39;74.97
75010;DHT22;63564;46.840;18.336;2023-02-28T05:44:08;0.50;76.47
75010;DHT22;63564;46.840;18.336;2023-02-28T05:47:09;0.60;74.94
75010;DHT22;63564;46.840;18.336;2023-02-28T05:50:10;0.56;74.71
75010;DHT22;63564;46.840;18.336;2023-02-28T05:53:10;0.50;75.24
75010;DHT22;63564;46.840;18.336;2023-02-28T05:56:11;0.43;75.66
75010;DHT22;63564;46.840;18.336;2023-02-28T05:59:12;0.46;75.57
75010;DHT22;63564;46.840;18.336;2023-02-28T06:02:15;0.56;75.85
75010;DHT22;63564;46.840;18.336;2023-02-28T06:05:17;0.44;76.58
75010;DHT22;63564;46.840;18.336;2023-02-28T06:08:17;0.58;76.50
75010;DHT22;63564;46.840;18.336;2023-02-28T06:11:18;0.61;76.30
75010;DHT22;63564;46.840;18.336;2023-02-28T06:14:20;0.50;76.64
75010;DHT22;63564;46.840;18.336;2023-02-28T06:17:21;0.52;77.17
75010;DHT22;63564;46.840;18.336;2023-02-28T06:20:21;0.54;77.10
75010;DHT22;63564;46.840;18.336;2023-02-28T06:23:22;0.56;76.96
75010;DHT22;63564;46.840;18.336;2023-02-28T06:26:23;0.68;75.57
75010;DHT22;63564;46.840;18.336;2023-02-28T06:29:23;0.73;75.73
75010;DHT22;63564;46.840;18.336;2023-02-28T06:32:23;0.63;74.74
75010;DHT22;63564;46.840;18.336;2023-02-28T06:35:24;0.75;74.51
75010;DHT22;63564;46.840;18.336;2023-02-28T06:38:24;0.95;73.55
75010;DHT22;63564;46.840;18.336;2023-02-28T06:41:26;0.83;73.73
75010;DHT22;63564;46.840;18.336;2023-02-28T06:44:26;1.05;73.97
75010;DHT22;63564;46.840;18.336;2023-02-28T06:47:27;1.06;74.09
75010;DHT22;63564;46.840;18.336;2023-02-28T06:50:27;1.21;72.47
75010;DHT22;63564;46.840;18.336;2023-02-28T06:53:29;1.06;72.82
75010;DHT22;63564;46.840;18.336;2023-02-28T06:56:30;1.02;72.75
75010;DHT22;63564;46.840;18.336;2023-02-28T06:59:31;1.02;71.76
75010;DHT22;63564;46.840;18.336;2023-02-28T07:02:31;1.19;70.69
75010;DHT22;63564;46.840;18.336;2023-02-28T07:05:34;1.23;71.15
75010;DHT22;63564;46.840;18.336;2023-02-28T07:08:35;1.22;70.64
75010;DHT22;63564;46.840;18.336;2023-02-28T07:11:40;1.36;69.89
75010;DHT22;63564;46.840;18.336;2023-02-28T07:14:42;1.51;70.08
75010;DHT22;63564;46.840;18.336;2023-02-28T07:17:43;1.64;69.06
75010;DHT22;63564;46.840;18.336;2023-02-28T07:20:43;1.77;69.17
75010;DHT22;63564;46.840;18.336;2023-02-28T07:23:44;1.74;67.39
75010;DHT22;63564;46.840;18.336;2023-02-28T07:26:44;1.85;68.85
75010;DHT22;63564;46.840;18.336;2023-02-28T07:29:45;1.91;67.97
75010;DHT22;63564;46.840;18.336;2023-02-28T07:32:45;1.81;67.70
75010;DHT22;63564;46.840;18.336;2023-02-28T07:35:46;1.85;67.66
75010;DHT22;63564;46.840;18.336;2023-02-28T07:38:47;1.78;66.99
75010;DHT22;63564;46.840;18.336;2023-02-28T07:41:49;2.04;66.55
75010;DHT22;63564;46.840;18.336;2023-02-28T07:44:50;2.11;66.16
75010;DHT22;63564;46.840;18.336;2023-02-28T07:47:51;2.43;67.34
75010;DHT22;63564;46.840;18.336;2023-02-28T07:50:55;2.24;66.82
75010;DHT22;63564;46.840;18.336;2023-02-28T07:53:56;2.04;66.77
75010;DHT22;63564;46.840;18.336;2023-02-28T07:56:57;2.04;66.58
75010;DHT22;63564;46.840;18.336;2023-02-28T07:59:59;2.14;67.70
75010;DHT22;63564;46.840;18.336;2023-02-28T08:02:59;1.80;65.69
75010;DHT22;63564;46.840;18.336;2023-02-28T08:06:05;2.29;69.24
75010;DHT22;63564;46.840;18.336;2023-02-28T08:09:06;2.29;67.51
75010;DHT22;63564;46.840;18.336;2023-02-28T08:12:07;2.05;66.35
75010;DHT22;63564;46.840;18.336;2023-02-28T08:15:08;2.22;70.96
75010;DHT22;63564;46.840;18.336;2023-02-28T08:18:09;2.15;65.92
75010;DHT22;63564;46.840;18.336;2023-02-28T08:21:10;2.15;68.20
75010;DHT22;63564;46.840;18.336;2023-02-28T08:24:11;1.99;65.94
75010;DHT22;63564;46.840;18.336;2023-02-28T08:27:11;2.47;67.85
75010;DHT22;63564;46.840;18.336;2023-02-28T08:30:16;2.98;65.64
75010;DHT22;63564;46.840;18.336;2023-02-28T08:33:17;2.90;62.93
75010;DHT22;63564;46.840;18.336;2023-02-28T08:36:17;3.02;62.56
75010;DHT22;63564;46.840;18.336;2023-02-28T08:39:18;3.29;63.07
75010;DHT22;63564;46.840;18.336;2023-02-28T08:42:20;3.23;61.38
75010;DHT22;63564;46.840;18.336;2023-02-28T08:45:20;3.74;63.08
75010;DHT22;63564;46.840;18.336;2023-02-28T08:48:20;4.28;63.23
75010;DHT22;63564;46.840;18.336;2023-02-28T08:51:21;4.01;59.44
75010;DHT22;63564;46.840;18.336;2023-02-28T08:54:26;3.71;59.30
75010;DHT22;63564;46.840;18.336;2023-02-28T08:57:29;3.83;61.38
75010;DHT22;63564;46.840;18.336;2023-02-28T09:00:29;3.94;61.20
75010;DHT22;63564;46.840;18.336;2023-02-28T09:03:29;3.90;59.15
75010;DHT22;63564;46.840;18.336;2023-02-28T09:06:31;3.99;60.27
75010;DHT22;63564;46.840;18.336;2023-02-28T09:09:32;4.11;60.61
75010;DHT22;63564;46.840;18.336;2023-02-28T09:12:34;3.77;61.69
75010;DHT22;63564;46.840;18.336;2023-02-28T09:15:37;3.66;60.27
75010;DHT22;63564;46.840;18.336;2023-02-28T09:18:38;3.67;61.91
75010;DHT22;63564;46.840;18.336;2023-02-28T09:21:39;3.67;62.55
75010;DHT22;63564;46.840;18.336;2023-02-28T09:24:39;3.49;61.23
75010;DHT22;63564;46.840;18.336;2023-02-28T09:27:40;3.50;61.60
75010;DHT22;63564;46.840;18.336;2023-02-28T09:30:40;3.66;61.40
75010;DHT22;63564;46.840;18.336;2023-02-28T09:33:40;3.86;60.91
75010;DHT22;63564;46.840;18.336;2023-02-28T09:36:41;3.52;61.37
75010;DHT22;63564;46.840;18.336;2023-02-28T09:39:41;3.60;60.89
75010;DHT22;63564;46.840;18.336;2023-02-28T09:42:42;3.64;60.89
75010;DHT22;63564;46.840;18.336;2023-02-28T09:45:47;4.08;60.24
75010;DHT22;63564;46.840;18.336;2023-02-28T09:48:48;4.01;60.11
75010;DHT22;63564;46.840;18.336;2023-02-28T09:51:56;4.24;60.23
75010;DHT22;63564;46.840;18.336;2023-02-28T09:55:39;4.66;58.32
75010;DHT22;63564;46.840;18.336;2023-02-28T09:58:53;4.66;57.78
75010;DHT22;63564;46.840;18.336;2023-02-28T10:05:39;4.53;56.71
75010;DHT22;63564;46.840;18.336;2023-02-28T10:08:50;5.50;57.39
75010;DHT22;63564;46.840;18.336;2023-02-28T10:11:54;5.21;56.89
75010;DHT22;63564;46.840;18.336;2023-02-28T10:14:58;5.45;56.01
75010;DHT22;63564;46.840;18.336;2023-02-28T10:18:05;5.62;56.76
75010;DHT22;63564;46.840;18.336;2023-02-28T10:21:24;5.18;58.38
75010;DHT22;63564;46.840;18.336;2023-02-28T10:24:40;5.04;57.19
75010;DHT22;63564;46.840;18.336;2023-02-28T10:27:41;5.71;56.53
75010;DHT22;63564;46.840;18.336;2023-02-28T10:30:45;6.01;53.77
75010;DHT22;63564;46.840;18.336;2023-02-28T10:33:48;5.62;56.78
75010;DHT22;63564;46.840;18.336;2023-02-28T10:36:49;5.52;56.13
75010;DHT22;63564;46.840;18.336;2023-02-28T10:39:50;5.79;57.01
75010;DHT22;63564;46.840;18.336;2023-02-28T10:43:21;5.83;57.15
75010;DHT22;63564;46.840;18.336;2023-02-28T10:46:22;5.90;56.86
75010;DHT22;63564;46.840;18.336;2023-02-28T10:49:27;5.71;56.04
75010;DHT22;63564;46.840;18.336;2023-02-28T10:52:37;5.71;55.69
75010;DHT22;63564;46.840;18.336;2023-02-28T10:55:38;5.76;56.10
75010;DHT22;63564;46.840;18.336;2023-02-28T10:58:56;5.97;55.80
75010;DHT22;63564;46.840;18.336;2023-02-28T11:01:57;5.39;56.19
75010;DHT22;63564;46.840;18.336;2023-02-28T11:04:57;5.69;55.50
75010;DHT22;63564;46.840;18.336;2023-02-28T11:11:13;6.50;53.94
75010;DHT22;63564;46.840;18.336;2023-02-28T11:14:26;5.97;56.12
75010;DHT22;63564;46.840;18.336;2023-02-28T11:17:30;6.41;56.31
75010;DHT22;63564;46.840;18.336;2023-02-28T11:20:32;6.42;55.48
75010;DHT22;63564;46.840;18.336;2023-02-28T11:23:36;6.49;55.81
75010;DHT22;63564;46.840;18.336;2023-02-28T11:26:40;6.13;56.28
75010;DHT22;63564;46.840;18.336;2023-02-28T11:29:47;6.25;55.56
75010;DHT22;63564;46.840;18.336;2023-02-28T11:32:48;6.25;55.95
75010;DHT22;63564;46.840;18.336;2023-02-28T11:35:50;6.53;55.48
75010;DHT22;63564;46.840;18.336;2023-02-28T11:38:53;6.38;55.27
75010;DHT22;63564;46.840;18.336;2023-02-28T11:45:37;6.48;56.43
75010;DHT22;63564;46.840;18.336;2023-02-28T11:55:54;6.66;54.54
75010;DHT22;63564;46.840;18.336;2023-02-28T12:05:46;6.66;57.36
75010;DHT22;63564;46.840;18.336;2023-02-28T12:29:00;7.52;55.18
75010;DHT22;63564;46.840;18.336;2023-02-28T12:32:11;7.90;54.34
75010;DHT22;63564;46.840;18.336;2023-02-28T12:35:16;8.34;53.35
75010;DHT22;63564;46.840;18.336;2023-02-28T12:38:28;7.39;54.13
75010;DHT22;63564;46.840;18.336;2023-02-28T12:44:49;7.05;56.78
75010;DHT22;63564;46.840;18.336;2023-02-28T12:47:57;7.10;56.17
75010;DHT22;63564;46.840;18.336;2023-02-28T12:51:00;6.86;58.54
75010;DHT22;63564;46.840;18.336;2023-02-28T12:57:34;7.20;57.48
75010;DHT22;63564;46.840;18.336;2023-02-28T13:00:55;6.83;56.39
75010;DHT22;63564;46.840;18.336;2023-02-28T13:10:55;6.97;57.17
75010;DHT22;63564;46.840;18.336;2023-02-28T13:14:02;7.21;59.96
75010;DHT22;63564;46.840;18.336;2023-02-28T13:20:25;6.94;58.35
75010;DHT22;63564;46.840;18.336;2023-02-28T13:36:46;6.42;60.14
75010;DHT22;63564;46.840;18.336;2023-02-28T13:42:50;6.65;59.60
75010;DHT22;63564;46.840;18.336;2023-02-28T13:46:06;6.29;59.66
75010;DHT22;63564;46.840;18.336;2023-02-28T13:49:26;6.79;57.33
75010;DHT22;63564;46.840;18.336;2023-02-28T13:56:19;6.53;58.43
75010;DHT22;63564;46.840;18.336;2023-02-28T13:59:29;6.24;59.95
75010;DHT22;63564;46.840;18.336;2023-02-28T14:02:54;6.62;58.76
75010;DHT22;63564;46.840;18.336;2023-02-28T14:06:32;6.22;59.91
75010;DHT22;63564;46.840;18.336;2023-02-28T14:09:34;6.11;60.12
75010;DHT22;63564;46.840;18.336;2023-02-28T14:15:58;6.42;60.71
75010;DHT22;63564;46.840;18.336;2023-02-28T14:19:03;6.73;59.14
75010;DHT22;63564;46.840;18.336;2023-02-28T14:28:56;6.49;60.13
75010;DHT22;63564;46.840;18.336;2023-02-28T14:38:32;6.28;60.72
75010;DHT22;63564;46.840;18.336;2023-02-28T14:41:38;6.11;61.97
75010;DHT22;63564;46.840;18.336;2023-02-28T14:44:39;6.38;60.67
75010;DHT22;63564;46.840;18.336;2023-02-28T14:47:42;6.20;61.96
75010;DHT22;63564;46.840;18.336;2023-02-28T14:50:48;5.96;61.32
75010;DHT22;63564;46.840;18.336;2023-02-28T14:53:55;5.96;61.39
75010;DHT22;63564;46.840;18.336;2023-02-28T14:56:56;5.96;61.85
75010;DHT22;63564;46.840;18.336;2023-02-28T15:03:32;5.79;64.33
75010;DHT22;63564;46.840;18.336;2023-02-28T15:06:33;5.74;64.24
75010;DHT22;63564;46.840;18.336;2023-02-28T15:09:33;5.91;62.81
75010;DHT22;63564;46.840;18.336;2023-02-28T15:12:35;5.77;64.01
75010;DHT22;63564;46.840;18.336;2023-02-28T15:15:51;5.73;65.23
75010;DHT22;63564;46.840;18.336;2023-02-28T15:18:57;5.73;63.40
75010;DHT22;63564;46.840;18.336;2023-02-28T15:22:02;5.86;63.73
75010;DHT22;63564;46.840;18.336;2023-02-28T15:25:05;5.85;64.53
75010;DHT22;63564;46.840;18.336;2023-02-28T15:28:13;5.66;64.23
75010;DHT22;63564;46.840;18.336;2023-02-28T15:31:20;5.49;64.76
75010;DHT22;63564;46.840;18.336;2023-02-28T15:37:40;5.28;65.11
75010;DHT22;63564;46.840;18.336;2023-02-28T15:40:49;5.22;65.30
75010;DHT22;63564;46.840;18.336;2023-02-28T15:44:25;5.14;66.09
75010;DHT22;63564;46.840;18.336;2023-02-28T15:47:28;4.79;66.68
75010;DHT22;63564;46.840;18.336;2023-02-28T15:50:29;4.76;66.64
75010;DHT22;63564;46.840;18.336;2023-02-28T15:53:32;4.74;67.25
75010;DHT22;63564;46.840;18.336;2023-02-28T15:56:38;4.84;67.44
75010;DHT22;63564;46.840;18.336;2023-02-28T15:59:39;4.57;67.82
75010;DHT22;63564;46.840;18.336;2023-02-28T16:02:42;4.45;67.92
75010;DHT22;63564;46.840;18.336;2023-02-28T16:05:43;4.57;67.45
75010;DHT22;63564;46.840;18.336;2023-02-28T16:08:44;4.57;67.99
75010;DHT22;63564;46.840;18.336;2023-02-28T16:11:48;4.45;68.53
75010;DHT22;63564;46.840;18.336;2023-02-28T16:14:51;4.35;68.89
75010;DHT22;63564;46.840;18.336;2023-02-28T16:17:53;4.22;69.50
75010;DHT22;63564;46.840;18.336;2023-02-28T16:20:54;4.35;69.44
75010;DHT22;63564;46.840;18.336;2023-02-28T16:23:54;4.25;69.34
75010;DHT22;63564;46.840;18.336;2023-02-28T16:26:55;4.31;68.43
75010;DHT22;63564;46.840;18.336;2023-02-28T16:29:57;4.39;68.90
75010;DHT22;63564;46.840;18.336;2023-02-28T16:32:58;4.39;69.15
75010;DHT22;63564;46.840;18.336;2023-02-28T16:35:59;4.35;70.33
75010;DHT22;63564;46.840;18.336;2023-02-28T16:39:00;4.39;69.76
75010;DHT22;63564;46.840;18.336;2023-02-28T16:42:02;4.35;70.46
75010;DHT22;63564;46.840;18.336;2023-02-28T16:45:04;4.07;71.02
75010;DHT22;63564;46.840;18.336;2023-02-28T16:48:05;4.08;71.59
75010;DHT22;63564;46.840;18.336;2023-02-28T16:51:05;4.31;71.20
75010;DHT22;63564;46.840;18.336;2023-02-28T16:54:06;4.32;70.40
75010;DHT22;63564;46.840;18.336;2023-02-28T16:57:17;4.22;71.52
75010;DHT22;63564;46.840;18.336;2023-02-28T17:00:19;4.31;70.96
75010;DHT22;63564;46.840;18.336;2023-02-28T17:03:24;4.39;71.02
75010;DHT22;63564;46.840;18.336;2023-02-28T17:06:27;4.35;71.35
75010;DHT22;63564;46.840;18.336;2023-02-28T17:09:28;4.21;71.87
75010;DHT22;63564;46.840;18.336;2023-02-28T17:12:28;4.15;72.03
75010;DHT22;63564;46.840;18.336;2023-02-28T17:15:29;4.14;72.90
75010;DHT22;63564;46.840;18.336;2023-02-28T17:18:31;4.01;73.14
75010;DHT22;63564;46.840;18.336;2023-02-28T17:21:34;3.93;73.72
75010;DHT22;63564;46.840;18.336;2023-02-28T17:24:34;4.18;74.04
75010;DHT22;63564;46.840;18.336;2023-02-28T17:27:35;4.22;73.67
75010;DHT22;63564;46.840;18.336;2023-02-28T17:30:36;4.32;73.90
75010;DHT22;63564;46.840;18.336;2023-02-28T17:33:37;4.18;73.38
75010;DHT22;63564;46.840;18.336;2023-02-28T17:36:38;4.31;73.52
75010;DHT22;63564;46.840;18.336;2023-02-28T17:39:38;4.18;73.84
75010;DHT22;63564;46.840;18.336;2023-02-28T17:42:40;3.78;75.22
75010;DHT22;63564;46.840;18.336;2023-02-28T17:45:41;3.91;75.30
75010;DHT22;63564;46.840;18.336;2023-02-28T17:48:41;3.83;75.78
75010;DHT22;63564;46.840;18.336;2023-02-28T17:51:42;3.76;77.03
75010;DHT22;63564;46.840;18.336;2023-02-28T17:54:43;3.81;76.63
75010;DHT22;63564;46.840;18.336;2023-02-28T17:57:44;4.14;75.97
75010;DHT22;63564;46.840;18.336;2023-02-28T18:00:45;3.91;76.06
75010;DHT22;63564;46.840;18.336;2023-02-28T18:03:47;3.93;76.55
75010;DHT22;63564;46.840;18.336;2023-02-28T18:06:48;3.94;76.34
75010;DHT22;63564;46.840;18.336;2023-02-28T18:09:51;4.05;76.47
75010;DHT22;63564;46.840;18.336;2023-02-28T18:12:52;4.09;75.77
75010;DHT22;63564;46.840;18.336;2023-02-28T18:15:54;4.14;74.82
75010;DHT22;63564;46.840;18.336;2023-02-28T18:18:55;4.22;75.33
75010;DHT22;63564;46.840;18.336;2023-02-28T18:21:55;4.11;75.63
75010;DHT22;63564;46.840;18.336;2023-02-28T18:24:56;4.15;75.19
75010;DHT22;63564;46.840;18.336;2023-02-28T18:27:57;3.94;75.41
75010;DHT22;63564;46.840;18.336;2023-02-28T18:31:05;4.04;75.24
75010;DHT22;63564;46.840;18.336;2023-02-28T18:34:07;4.07;75.04
75010;DHT22;63564;46.840;18.336;2023-02-28T18:37:08;3.93;75.78
75010;DHT22;63564;46.840;18.336;2023-02-28T18:40:11;3.53;77.52
75010;DHT22;63564;46.840;18.336;2023-02-28T18:43:15;3.77;77.36
75010;DHT22;63564;46.840;18.336;2023-02-28T18:46:17;3.78;76.91
75010;DHT22;63564;46.840;18.336;2023-02-28T18:49:18;3.87;76.95
75010;DHT22;63564;46.840;18.336;2023-02-28T18:52:19;3.99;76.48
75010;DHT22;63564;46.840;18.336;2023-02-28T18:55:20;3.69;77.83
75010;DHT22;63564;46.840;18.336;2023-02-28T18:58:22;3.93;77.27
75010;DHT22;63564;46.840;18.336;2023-02-28T19:01:25;3.99;77.14
75010;DHT22;63564;46.840;18.336;2023-02-28T19:04:29;3.83;77.21
75010;DHT22;63564;46.840;18.336;2023-02-28T19:07:31;3.87;78.24
75010;DHT22;63564;46.840;18.336;2023-02-28T19:10:38;3.87;77.37
75010;DHT22;63564;46.840;18.336;2023-02-28T19:13:41;3.73;77.92
75010;DHT22;63564;46.840;18.336;2023-02-28T19:16:42;3.44;79.30
75010;DHT22;63564;46.840;18.336;2023-02-28T19:19:43;3.60;79.64
75010;DHT22;63564;46.840;18.336;2023-02-28T19:22:43;3.48;80.16
75010;DHT22;63564;46.840;18.336;2023-02-28T19:25:44;3.35;80.97
75010;DHT22;63564;46.840;18.336;2023-02-28T19:28:45;3.35;80.77
75010;DHT22;63564;46.840;18.336;2023-02-28T19:31:46;3.73;79.85
75010;DHT22;63564;46.840;18.336;2023-02-28T19:34:47;3.83;78.74
75010;DHT22;63564;46.840;18.336;2023-02-28T19:37:47;3.81;78.93
75010;DHT22;63564;46.840;18.336;2023-02-28T19:40:59;3.70;78.95
75010;DHT22;63564;46.840;18.336;2023-02-28T19:44:00;3.69;79.02
75010;DHT22;63564;46.840;18.336;2023-02-28T19:47:01;3.80;78.66
75010;DHT22;63564;46.840;18.336;2023-02-28T19:50:04;3.49;80.85
75010;DHT22;63564;46.840;18.336;2023-02-28T19:53:06;3.53;80.02
75010;DHT22;63564;46.840;18.336;2023-02-28T19:56:09;3.44;79.77
75010;DHT22;63564;46.840;18.336;2023-02-28T19:59:10;3.67;78.92
75010;DHT22;63564;46.840;18.336;2023-02-28T20:02:14;3.52;80.03
75010;DHT22;63564;46.840;18.336;2023-02-28T20:05:14;3.35;79.64
75010;DHT22;63564;46.840;18.336;2023-02-28T20:08:15;3.23;80.68
75010;DHT22;63564;46.840;18.336;2023-02-28T20:11:17;3.23;80.41
75010;DHT22;63564;46.840;18.336;2023-02-28T20:14:18;3.22;80.00
75010;DHT22;63564;46.840;18.336;2023-02-28T20:17:19;3.32;80.33
75010;DHT22;63564;46.840;18.336;2023-02-28T20:20:20;3.28;80.63
75010;DHT22;63564;46.840;18.336;2023-02-28T20:23:21;3.38;79.50
75010;DHT22;63564;46.840;18.336;2023-02-28T20:26:21;3.25;79.74
75010;DHT22;63564;46.840;18.336;2023-02-28T20:29:23;3.29;79.53
75010;DHT22;63564;46.840;18.336;2023-02-28T20:32:24;3.25;80.01
75010;DHT22;63564;46.840;18.336;2023-02-28T20:35:25;3.22;80.46
75010;DHT22;63564;46.840;18.336;2023-02-28T20:38:26;3.18;80.38
75010;DHT22;63564;46.840;18.336;2023-02-28T20:41:27;3.25;80.98
75010;DHT22;63564;46.840;18.336;2023-02-28T20:44:28;3.21;80.42
75010;DHT22;63564;46.840;18.336;2023-02-28T20:47:29;3.16;81.02
75010;DHT22;63564;46.840;18.336;2023-02-28T20:50:29;3.08;80.84
75010;DHT22;63564;46.840;18.336;2023-02-28T20:53:32;3.16;80.43
75010;DHT22;63564;46.840;18.336;2023-02-28T20:56:33;3.07;80.62
75010;DHT22;63564;46.840;18.336;2023-02-28T20:59:35;3.25;80.34
75010;DHT22;63564;46.840;18.336;2023-02-28T21:02:37;3.48;79.06
75010;DHT22;63564;46.840;18.336;2023-02-28T21:05:38;3.33;80.09
75010;DHT22;63564;46.840;18.336;2023-02-28T21:08:39;3.36;80.20
75010;DHT22;63564;46.840;18.336;2023-02-28T21:11:40;3.39;80.04
75010;DHT22;63564;46.840;18.336;2023-02-28T21:14:41;3.36;79.04
75010;DHT22;63564;46.840;18.336;2023-02-28T21:17:42;3.33;78.67
75010;DHT22;63564;46.840;18.336;2023-02-28T21:20:43;3.16;81.50
75010;DHT22;63564;46.840;18.336;2023-02-28T21:23:44;3.44;81.00
75010;DHT22;63564;46.840;18.336;2023-02-28T21:26:46;3.40;80.40
75010;DHT22;63564;46.840;18.336;2023-02-28T21:29:47;3.39;79.76
75010;DHT22;63564;46.840;18.336;2023-02-28T21:32:47;3.13;80.76